sensor_id;sensor_type;location;lat;lon;timestamp;temperature;humidity
15916;DHT22;8057;47.830;-3.870;2023-05-31T00:01:29;13.20;99.90
15916;DHT22;8057;47.830;-3.870;2023-05-31T00:06:13;13.10;99.90
15916;DHT22;8057;47.830;-3.870;2023-05-31T00:20:58;13.10;99.90
15916;DHT22;8057;47.830;-3.870;2023-05-31T00:25:13;13.10;99.90
15916;DHT22;8057;47.830;-3.870;2023-05-31T00:29:30;13.10;99.90
15916;DHT22;8057;47.830;-3.870;2023-05-31T00:34:12;13.00;99.90
15916;DHT22;8057;47.830;-3.870;2023-05-31T00:38:24;13.00;99.90
15916;DHT22;8057;47.830;-3.870;2023-05-31T00:42:53;13.00;99.90
15916;DHT22;8057;47.830;-3.870;2023-05-31T00:47:05;12.90;99.90
15916;DHT22;8057;47.830;-3.870;2023-05-31T00:51:21;12.90;99.90
15916;DHT22;8057;47.830;-3.870;2023-05-31T00:55:40;12.90;99.90
15916;DHT22;8057;47.830;-3.870;2023-05-31T00:59:53;12.90;99.90
15916;DHT22;8057;47.830;-3.870;2023-05-31T01:04:03;12.80;99.90
15916;DHT22;8057;47.830;-3.870;2023-05-31T01:08:17;12.90;99.90
15916;DHT22;8057;47.830;-3.870;2023-05-31T01:12:35;12.80;99.90
15916;DHT22;8057;47.830;-3.870;2023-05-31T01:16:53;12.80;99.90
15916;DHT22;8057;47.830;-3.870;2023-05-31T01:21:10;12.80;99.90
15916;DHT22;8057;47.830;-3.870;2023-05-31T01:25:46;12.80;99.90
15916;DHT22;8057;47.830;-3.870;2023-05-31T01:30:05;12.80;99.90
15916;DHT22;8057;47.830;-3.870;2023-05-31T01:34:31;12.80;99.90
15916;DHT22;8057;47.830;-3.870;2023-05-31T01:38:47;12.70;99.90
15916;DHT22;8057;47.830;-3.870;2023-05-31T01:43:21;12.80;99.90
15916;DHT22;8057;47.830;-3.870;2023-05-31T01:47:35;12.80;99.90
15916;DHT22;8057;47.830;-3.870;2023-05-31T01:51:51;12.70;99.90
15916;DHT22;8057;47.830;-3.870;2023-05-31T01:56:02;12.70;99.90
15916;DHT22;8057;47.830;-3.870;2023-05-31T02:00:13;12.70;99.90
15916;DHT22;8057;47.830;-3.870;2023-05-31T02:04:24;12.70;99.90
15916;DHT22;8057;47.830;-3.870;2023-05-31T02:08:35;12.70;99.90
15916;DHT22;8057;47.830;-3.870;2023-05-31T02:12:47;12.70;99.90
15916;DHT22;8057;47.830;-3.870;2023-05-31T02:17:00;12.80;99.90
15916;DHT22;8057;47.830;-3.870;2023-05-31T02:21:19;12.80;99.90
15916;DHT22;8057;47.830;-3.870;2023-05-31T02:25:33;12.80;99.90
15916;DHT22;8057;47.830;-3.870;2023-05-31T02:29:47;12.70;99.90
15916;DHT22;8057;47.830;-3.870;2023-05-31T02:34:00;12.60;99.90
15916;DHT22;8057;47.830;-3.870;2023-05-31T02:38:13;12.70;99.90
15916;DHT22;8057;47.830;-3.870;2023-05-31T02:42:25;12.70;99.90
15916;DHT22;8057;47.830;-3.870;2023-05-31T02:46:38;12.60;99.90
15916;DHT22;8057;47.830;-3.870;2023-05-31T02:51:19;12.60;99.90
15916;DHT22;8057;47.830;-3.870;2023-05-31T02:55:36;12.60;99.90
15916;DHT22;8057;47.830;-3.870;2023-05-31T03:00:02;12.50;99.90
15916;DHT22;8057;47.830;-3.870;2023-05-31T03:04:35;12.50;99.90
15916;DHT22;8057;47.830;-3.870;2023-05-31T03:08:51;12.50;99.90
15916;DHT22;8057;47.830;-3.870;2023-05-31T03:13:08;12.50;99.90
15916;DHT22;8057;47.830;-3.870;2023-05-31T03:17:18;12.50;99.90
15916;DHT22;8057;47.830;-3.870;2023-05-31T03:21:28;12.40;99.90
15916;DHT22;8057;47.830;-3.870;2023-05-31T03:25:37;12.50;99.90
15916;DHT22;8057;47.830;-3.870;2023-05-31T03:29:49;12.50;99.90
15916;DHT22;8057;47.830;-3.870;2023-05-31T03:33:59;12.40;99.90
15916;DHT22;8057;47.830;-3.870;2023-05-31T03:38:09;12.40;99.90
15916;DHT22;8057;47.830;-3.870;2023-05-31T03:42:19;12.40;99.90
15916;DHT22;8057;47.830;-3.870;2023-05-31T03:46:30;12.40;99.90
15916;DHT22;8057;47.830;-3.870;2023-05-31T03:50:40;12.40;99.90
15916;DHT22;8057;47.830;-3.870;2023-05-31T03:54:50;12.40;99.90
15916;DHT22;8057;47.830;-3.870;2023-05-31T03:58:59;12.40;99.90
15916;DHT22;8057;47.830;-3.870;2023-05-31T04:03:17;12.40;99.90
15916;DHT22;8057;47.830;-3.870;2023-05-31T04:07:30;12.40;99.90
15916;DHT22;8057;47.830;-3.870;2023-05-31T04:11:40;12.40;99.90
15916;DHT22;8057;47.830;-3.870;2023-05-31T04:15:50;12.30;99.90
15916;DHT22;8057;47.830;-3.870;2023-05-31T04:20:01;12.30;99.90
15916;DHT22;8057;47.830;-3.870;2023-05-31T04:24:15;12.30;99.90
15916;DHT22;8057;47.830;-3.870;2023-05-31T04:28:25;12.30;99.90
15916;DHT22;8057;47.830;-3.870;2023-05-31T04:32:40;12.40;99.90
15916;DHT22;8057;47.830;-3.870;2023-05-31T04:36:50;12.30;99.90
15916;DHT22;8057;47.830;-3.870;2023-05-31T04:41:00;12.30;99.90
15916;DHT22;8057;47.830;-3.870;2023-05-31T04:45:25;12.40;99.90
15916;DHT22;8057;47.830;-3.870;2023-05-31T04:49:37;12.30;99.90
15916;DHT22;8057;47.830;-3.870;2023-05-31T04:54:02;12.40;99.90
15916;DHT22;8057;47.830;-3.870;2023-05-31T04:58:20;12.40;99.90
15916;DHT22;8057;47.830;-3.870;2023-05-31T05:02:30;12.40;99.90
15916;DHT22;8057;47.830;-3.870;2023-05-31T05:06:44;12.40;99.90
15916;DHT22;8057;47.830;-3.870;2023-05-31T05:10:55;12.50;99.90
15916;DHT22;8057;47.830;-3.870;2023-05-31T05:15:07;12.50;99.90
15916;DHT22;8057;47.830;-3.870;2023-05-31T05:19:17;12.50;99.90
15916;DHT22;8057;47.830;-3.870;2023-05-31T05:23:37;12.60;99.90
15916;DHT22;8057;47.830;-3.870;2023-05-31T05:27:49;12.60;99.90
15916;DHT22;8057;47.830;-3.870;2023-05-31T05:31:59;12.70;99.90
15916;DHT22;8057;47.830;-3.870;2023-05-31T05:36:13;12.70;99.90
15916;DHT22;8057;47.830;-3.870;2023-05-31T05:40:26;12.80;99.90
15916;DHT22;8057;47.830;-3.870;2023-05-31T05:44:40;12.80;99.90
15916;DHT22;8057;47.830;-3.870;2023-05-31T05:48:50;12.90;99.90
15916;DHT22;8057;47.830;-3.870;2023-05-31T05:52:59;13.00;99.90
15916;DHT22;8057;47.830;-3.870;2023-05-31T05:57:09;13.10;99.90
15916;DHT22;8057;47.830;-3.870;2023-05-31T06:01:22;13.20;99.90
15916;DHT22;8057;47.830;-3.870;2023-05-31T06:05:35;13.20;99.90
15916;DHT22;8057;47.830;-3.870;2023-05-31T06:09:50;13.30;99.90
15916;DHT22;8057;47.830;-3.870;2023-05-31T06:14:01;13.40;99.90
15916;DHT22;8057;47.830;-3.870;2023-05-31T06:18:13;13.50;99.90
15916;DHT22;8057;47.830;-3.870;2023-05-31T06:22:23;13.60;99.90
15916;DHT22;8057;47.830;-3.870;2023-05-31T06:26:39;13.70;99.90
15916;DHT22;8057;47.830;-3.870;2023-05-31T06:31:03;13.70;99.90
15916;DHT22;8057;47.830;-3.870;2023-05-31T06:35:14;13.90;99.90
15916;DHT22;8057;47.830;-3.870;2023-05-31T06:39:25;13.90;99.90
15916;DHT22;8057;47.830;-3.870;2023-05-31T06:43:53;14.00;99.90
15916;DHT22;8057;47.830;-3.870;2023-05-31T06:48:10;14.10;99.90
15916;DHT22;8057;47.830;-3.870;2023-05-31T06:52:24;14.10;99.90
15916;DHT22;8057;47.830;-3.870;2023-05-31T07:01:05;14.40;99.90
15916;DHT22;8057;47.830;-3.870;2023-05-31T07:05:19;14.50;99.90
15916;DHT22;8057;47.830;-3.870;2023-05-31T07:09:30;14.60;99.90
15916;DHT22;8057;47.830;-3.870;2023-05-31T07:13:50;14.70;99.90
15916;DHT22;8057;47.830;-3.870;2023-05-31T07:18:00;14.80;99.90
15916;DHT22;8057;47.830;-3.870;2023-05-31T07:22:14;14.90;99.90
15916;DHT22;8057;47.830;-3.870;2023-05-31T07:26:26;14.90;99.90
15916;DHT22;8057;47.830;-3.870;2023-05-31T07:30:36;14.90;99.90
15916;DHT22;8057;47.830;-3.870;2023-05-31T07:34:46;14.90;99.90
15916;DHT22;8057;47.830;-3.870;2023-05-31T07:39:10;14.90;99.90
15916;DHT22;8057;47.830;-3.870;2023-05-31T07:43:23;15.00;99.90
15916;DHT22;8057;47.830;-3.870;2023-05-31T07:47:38;15.10;99.90
15916;DHT22;8057;47.830;-3.870;2023-05-31T07:51:48;15.30;99.90
15916;DHT22;8057;47.830;-3.870;2023-05-31T07:55:58;15.30;99.90
15916;DHT22;8057;47.830;-3.870;2023-05-31T08:00:10;15.50;99.90
15916;DHT22;8057;47.830;-3.870;2023-05-31T08:04:22;15.50;99.90
15916;DHT22;8057;47.830;-3.870;2023-05-31T08:08:31;15.40;99.90
15916;DHT22;8057;47.830;-3.870;2023-05-31T08:12:41;15.60;99.90
15916;DHT22;8057;47.830;-3.870;2023-05-31T08:16:52;15.80;99.90
15916;DHT22;8057;47.830;-3.870;2023-05-31T08:21:02;15.90;99.90
15916;DHT22;8057;47.830;-3.870;2023-05-31T08:25:13;16.00;99.90
15916;DHT22;8057;47.830;-3.870;2023-05-31T08:29:24;16.20;99.90
15916;DHT22;8057;47.830;-3.870;2023-05-31T08:33:35;16.30;99.90
15916;DHT22;8057;47.830;-3.870;2023-05-31T08:37:44;16.50;99.90
15916;DHT22;8057;47.830;-3.870;2023-05-31T08:41:59;16.70;99.90
15916;DHT22;8057;47.830;-3.870;2023-05-31T08:46:10;16.80;99.90
15916;DHT22;8057;47.830;-3.870;2023-05-31T08:50:22;17.10;99.90
15916;DHT22;8057;47.830;-3.870;2023-05-31T08:54:32;17.40;99.90
15916;DHT22;8057;47.830;-3.870;2023-05-31T08:58:42;17.50;99.90
15916;DHT22;8057;47.830;-3.870;2023-05-31T09:02:53;17.50;99.90
15916;DHT22;8057;47.830;-3.870;2023-05-31T09:07:04;17.50;99.90
15916;DHT22;8057;47.830;-3.870;2023-05-31T09:11:15;17.70;99.90
15916;DHT22;8057;47.830;-3.870;2023-05-31T09:15:25;17.40;99.90
15916;DHT22;8057;47.830;-3.870;2023-05-31T09:19:40;17.60;99.90
15916;DHT22;8057;47.830;-3.870;2023-05-31T09:23:55;17.70;99.90
15916;DHT22;8057;47.830;-3.870;2023-05-31T09:28:05;18.10;99.90
15916;DHT22;8057;47.830;-3.870;2023-05-31T09:32:15;18.40;99.90
15916;DHT22;8057;47.830;-3.870;2023-05-31T09:36:25;18.60;99.90
15916;DHT22;8057;47.830;-3.870;2023-05-31T09:40:36;18.30;99.90
15916;DHT22;8057;47.830;-3.870;2023-05-31T09:44:48;18.30;99.90
15916;DHT22;8057;47.830;-3.870;2023-05-31T09:48:59;18.20;99.90
15916;DHT22;8057;47.830;-3.870;2023-05-31T09:53:17;18.20;99.90
15916;DHT22;8057;47.830;-3.870;2023-05-31T09:57:34;18.50;99.90
15916;DHT22;8057;47.830;-3.870;2023-05-31T10:01:48;18.90;99.90
15916;DHT22;8057;47.830;-3.870;2023-05-31T10:05:59;18.90;99.90
15916;DHT22;8057;47.830;-3.870;2023-05-31T10:10:10;18.80;99.90
15916;DHT22;8057;47.830;-3.870;2023-05-31T10:14:24;19.30;99.90
15916;DHT22;8057;47.830;-3.870;2023-05-31T10:18:38;19.20;99.90
15916;DHT22;8057;47.830;-3.870;2023-05-31T10:22:52;19.10;99.90
15916;DHT22;8057;47.830;-3.870;2023-05-31T10:27:10;19.40;99.90
15916;DHT22;8057;47.830;-3.870;2023-05-31T10:31:25;19.80;99.90
15916;DHT22;8057;47.830;-3.870;2023-05-31T10:35:37;20.00;99.90
15916;DHT22;8057;47.830;-3.870;2023-05-31T10:39:53;19.70;99.90
15916;DHT22;8057;47.830;-3.870;2023-05-31T10:44:09;19.60;99.90
15916;DHT22;8057;47.830;-3.870;2023-05-31T10:48:29;19.70;99.90
15916;DHT22;8057;47.830;-3.870;2023-05-31T10:52:41;20.00;99.90
15916;DHT22;8057;47.830;-3.870;2023-05-31T10:56:53;20.10;99.90
15916;DHT22;8057;47.830;-3.870;2023-05-31T11:01:04;20.40;99.90
15916;DHT22;8057;47.830;-3.870;2023-05-31T11:05:20;20.60;99.90
15916;DHT22;8057;47.830;-3.870;2023-05-31T11:09:31;20.50;99.90
15916;DHT22;8057;47.830;-3.870;2023-05-31T11:13:59;20.40;99.90
15916;DHT22;8057;47.830;-3.870;2023-05-31T11:18:10;20.40;99.90
15916;DHT22;8057;47.830;-3.870;2023-05-31T11:22:25;20.50;99.90
15916;DHT22;8057;47.830;-3.870;2023-05-31T11:26:51;20.60;99.90
15916;DHT22;8057;47.830;-3.870;2023-05-31T11:31:00;20.70;99.90
15916;DHT22;8057;47.830;-3.870;2023-05-31T11:35:14;20.80;99.90
15916;DHT22;8057;47.830;-3.870;2023-05-31T11:39:25;20.60;99.90
15916;DHT22;8057;47.830;-3.870;2023-05-31T11:43:35;21.00;99.90
15916;DHT22;8057;47.830;-3.870;2023-05-31T11:47:51;21.50;99.90
15916;DHT22;8057;47.830;-3.870;2023-05-31T11:52:03;21.40;99.90
15916;DHT22;8057;47.830;-3.870;2023-05-31T11:56:16;21.50;99.90
15916;DHT22;8057;47.830;-3.870;2023-05-31T12:00:27;21.70;99.90
15916;DHT22;8057;47.830;-3.870;2023-05-31T12:04:38;22.10;99.90
15916;DHT22;8057;47.830;-3.870;2023-05-31T12:08:51;22.20;99.90
15916;DHT22;8057;47.830;-3.870;2023-05-31T12:13:03;21.90;99.90
15916;DHT22;8057;47.830;-3.870;2023-05-31T12:17:14;22.10;99.90
15916;DHT22;8057;47.830;-3.870;2023-05-31T12:21:24;22.20;99.90
15916;DHT22;8057;47.830;-3.870;2023-05-31T12:25:33;22.20;99.90
15916;DHT22;8057;47.830;-3.870;2023-05-31T12:29:44;22.30;99.90
15916;DHT22;8057;47.830;-3.870;2023-05-31T12:34:05;22.30;99.90
15916;DHT22;8057;47.830;-3.870;2023-05-31T12:38:18;22.30;99.90
15916;DHT22;8057;47.830;-3.870;2023-05-31T12:42:28;22.60;99.90
15916;DHT22;8057;47.830;-3.870;2023-05-31T12:46:43;22.80;99.90
15916;DHT22;8057;47.830;-3.870;2023-05-31T12:50:52;22.70;99.90
15916;DHT22;8057;47.830;-3.870;2023-05-31T12:55:04;22.80;99.90
15916;DHT22;8057;47.830;-3.870;2023-05-31T12:59:14;22.70;99.90
15916;DHT22;8057;47.830;-3.870;2023-05-31T13:03:28;23.10;99.90
15916;DHT22;8057;47.830;-3.870;2023-05-31T13:07:37;23.10;99.90
15916;DHT22;8057;47.830;-3.870;2023-05-31T13:11:48;23.60;99.90
15916;DHT22;8057;47.830;-3.870;2023-05-31T13:15:59;23.20;99.90
15916;DHT22;8057;47.830;-3.870;2023-05-31T13:20:10;23.20;99.90
15916;DHT22;8057;47.830;-3.870;2023-05-31T13:24:21;23.00;99.90
15916;DHT22;8057;47.830;-3.870;2023-05-31T13:28:30;23.10;99.90
15916;DHT22;8057;47.830;-3.870;2023-05-31T13:32:40;23.40;99.90
15916;DHT22;8057;47.830;-3.870;2023-05-31T13:36:52;23.60;99.90
15916;DHT22;8057;47.830;-3.870;2023-05-31T13:41:01;23.80;99.90
15916;DHT22;8057;47.830;-3.870;2023-05-31T13:45:16;23.70;99.90
15916;DHT22;8057;47.830;-3.870;2023-05-31T13:49:25;23.90;99.90
15916;DHT22;8057;47.830;-3.870;2023-05-31T13:53:36;24.10;99.90
15916;DHT22;8057;47.830;-3.870;2023-05-31T13:57:46;23.80;99.90
15916;DHT22;8057;47.830;-3.870;2023-05-31T14:01:55;23.80;99.90
15916;DHT22;8057;47.830;-3.870;2023-05-31T14:06:05;23.90;99.90
15916;DHT22;8057;47.830;-3.870;2023-05-31T14:10:16;23.90;99.90
15916;DHT22;8057;47.830;-3.870;2023-05-31T14:14:25;24.10;99.90
15916;DHT22;8057;47.830;-3.870;2023-05-31T14:18:35;24.00;99.90
15916;DHT22;8057;47.830;-3.870;2023-05-31T14:22:44;24.10;99.90
15916;DHT22;8057;47.830;-3.870;2023-05-31T14:26:55;23.80;99.90
15916;DHT22;8057;47.830;-3.870;2023-05-31T14:31:04;23.60;99.90
15916;DHT22;8057;47.830;-3.870;2023-05-31T14:35:14;23.70;99.90
15916;DHT22;8057;47.830;-3.870;2023-05-31T14:39:25;23.80;99.90
15916;DHT22;8057;47.830;-3.870;2023-05-31T14:43:36;24.00;99.90
15916;DHT22;8057;47.830;-3.870;2023-05-31T14:47:46;24.30;99.90
15916;DHT22;8057;47.830;-3.870;2023-05-31T14:51:56;23.80;99.90
15916;DHT22;8057;47.830;-3.870;2023-05-31T14:56:06;23.70;99.90
15916;DHT22;8057;47.830;-3.870;2023-05-31T15:00:26;23.60;99.90
15916;DHT22;8057;47.830;-3.870;2023-05-31T15:04:35;23.60;99.90
15916;DHT22;8057;47.830;-3.870;2023-05-31T15:08:45;23.60;99.90
15916;DHT22;8057;47.830;-3.870;2023-05-31T15:12:54;23.70;99.90
15916;DHT22;8057;47.830;-3.870;2023-05-31T15:17:06;23.70;99.90
15916;DHT22;8057;47.830;-3.870;2023-05-31T15:21:15;23.60;99.90
15916;DHT22;8057;47.830;-3.870;2023-05-31T15:25:24;23.50;99.90
15916;DHT22;8057;47.830;-3.870;2023-05-31T15:29:34;23.50;99.90
15916;DHT22;8057;47.830;-3.870;2023-05-31T15:33:45;23.50;99.90
15916;DHT22;8057;47.830;-3.870;2023-05-31T15:37:54;23.80;99.90
15916;DHT22;8057;47.830;-3.870;2023-05-31T15:42:04;23.50;99.90
15916;DHT22;8057;47.830;-3.870;2023-05-31T15:46:14;23.40;99.90
15916;DHT22;8057;47.830;-3.870;2023-05-31T15:50:38;23.10;99.90
15916;DHT22;8057;47.830;-3.870;2023-05-31T15:54:47;23.50;99.90
15916;DHT22;8057;47.830;-3.870;2023-05-31T15:59:12;23.60;99.90
15916;DHT22;8057;47.830;-3.870;2023-05-31T16:35:58;23.20;99.90
15916;DHT22;8057;47.830;-3.870;2023-05-31T16:40:08;23.10;99.90
15916;DHT22;8057;47.830;-3.870;2023-05-31T16:44:18;22.70;99.90
15916;DHT22;8057;47.830;-3.870;2023-05-31T16:48:27;22.70;99.90
15916;DHT22;8057;47.830;-3.870;2023-05-31T16:52:39;22.60;99.90
15916;DHT22;8057;47.830;-3.870;2023-05-31T16:56:49;22.60;99.90
15916;DHT22;8057;47.830;-3.870;2023-05-31T17:00:58;22.60;99.90
15916;DHT22;8057;47.830;-3.870;2023-05-31T17:05:08;22.70;99.90
15916;DHT22;8057;47.830;-3.870;2023-05-31T17:09:19;22.80;99.90
15916;DHT22;8057;47.830;-3.870;2023-05-31T17:13:29;22.70;99.90
15916;DHT22;8057;47.830;-3.870;2023-05-31T17:17:38;22.70;99.90
15916;DHT22;8057;47.830;-3.870;2023-05-31T17:21:49;22.50;99.90
15916;DHT22;8057;47.830;-3.870;2023-05-31T17:26:00;22.30;99.90
15916;DHT22;8057;47.830;-3.870;2023-05-31T17:30:10;22.30;99.90
15916;DHT22;8057;47.830;-3.870;2023-05-31T17:34:19;22.20;99.90
15916;DHT22;8057;47.830;-3.870;2023-05-31T17:38:28;22.20;99.90
15916;DHT22;8057;47.830;-3.870;2023-05-31T17:42:43;22.10;99.90
15916;DHT22;8057;47.830;-3.870;2023-05-31T17:46:56;22.10;99.90
15916;DHT22;8057;47.830;-3.870;2023-05-31T17:51:06;22.00;99.90
15916;DHT22;8057;47.830;-3.870;2023-05-31T17:55:15;21.90;99.90
15916;DHT22;8057;47.830;-3.870;2023-05-31T17:59:25;21.80;99.90
15916;DHT22;8057;47.830;-3.870;2023-05-31T18:03:35;21.70;99.90
15916;DHT22;8057;47.830;-3.870;2023-05-31T18:07:44;21.60;99.90
15916;DHT22;8057;47.830;-3.870;2023-05-31T18:11:54;21.60;99.90
15916;DHT22;8057;47.830;-3.870;2023-05-31T18:16:05;21.40;99.90
15916;DHT22;8057;47.830;-3.870;2023-05-31T18:20:14;21.30;99.90
15916;DHT22;8057;47.830;-3.870;2023-05-31T18:24:25;21.10;99.90
15916;DHT22;8057;47.830;-3.870;2023-05-31T18:28:34;21.00;99.90
15916;DHT22;8057;47.830;-3.870;2023-05-31T18:32:47;21.00;99.90
15916;DHT22;8057;47.830;-3.870;2023-05-31T18:36:56;21.00;99.90
15916;DHT22;8057;47.830;-3.870;2023-05-31T18:41:05;20.70;99.90
15916;DHT22;8057;47.830;-3.870;2023-05-31T18:45:15;20.60;99.90
15916;DHT22;8057;47.830;-3.870;2023-05-31T18:49:27;20.50;99.90
15916;DHT22;8057;47.830;-3.870;2023-05-31T18:53:37;20.40;99.90
15916;DHT22;8057;47.830;-3.870;2023-05-31T18:57:47;20.30;99.90
15916;DHT22;8057;47.830;-3.870;2023-05-31T19:01:57;20.20;99.90
15916;DHT22;8057;47.830;-3.870;2023-05-31T19:06:08;20.10;99.90
15916;DHT22;8057;47.830;-3.870;2023-05-31T19:10:17;19.90;99.90
15916;DHT22;8057;47.830;-3.870;2023-05-31T19:14:27;19.80;99.90
15916;DHT22;8057;47.830;-3.870;2023-05-31T19:18:36;19.60;99.90
15916;DHT22;8057;47.830;-3.870;2023-05-31T19:22:48;19.40;99.90
15916;DHT22;8057;47.830;-3.870;2023-05-31T19:26:58;19.20;99.90
15916;DHT22;8057;47.830;-3.870;2023-05-31T19:31:07;19.10;99.90
15916;DHT22;8057;47.830;-3.870;2023-05-31T19:35:17;18.90;99.90
15916;DHT22;8057;47.830;-3.870;2023-05-31T19:39:29;18.80;99.90
15916;DHT22;8057;47.830;-3.870;2023-05-31T19:43:39;18.70;99.90
15916;DHT22;8057;47.830;-3.870;2023-05-31T19:47:49;18.50;99.90
15916;DHT22;8057;47.830;-3.870;2023-05-31T19:51:59;18.20;99.90
15916;DHT22;8057;47.830;-3.870;2023-05-31T19:56:10;17.70;99.90
15916;DHT22;8057;47.830;-3.870;2023-05-31T20:00:19;17.40;99.90
15916;DHT22;8057;47.830;-3.870;2023-05-31T20:04:29;17.20;99.90
15916;DHT22;8057;47.830;-3.870;2023-05-31T20:08:40;17.10;99.90
15916;DHT22;8057;47.830;-3.870;2023-05-31T20:12:51;16.80;99.90
15916;DHT22;8057;47.830;-3.870;2023-05-31T20:17:00;16.60;99.90
15916;DHT22;8057;47.830;-3.870;2023-05-31T20:21:12;16.50;99.90
15916;DHT22;8057;47.830;-3.870;2023-05-31T20:25:21;16.30;99.90
15916;DHT22;8057;47.830;-3.870;2023-05-31T20:29:31;16.20;99.90
15916;DHT22;8057;47.830;-3.870;2023-05-31T20:33:41;16.10;99.90
15916;DHT22;8057;47.830;-3.870;2023-05-31T20:37:50;15.90;99.90
15916;DHT22;8057;47.830;-3.870;2023-05-31T20:41:59;15.80;99.90
15916;DHT22;8057;47.830;-3.870;2023-05-31T20:46:10;15.70;99.90
15916;DHT22;8057;47.830;-3.870;2023-05-31T20:50:19;15.70;99.90
15916;DHT22;8057;47.830;-3.870;2023-05-31T20:54:29;15.60;99.90
15916;DHT22;8057;47.830;-3.870;2023-05-31T20:58:38;15.50;99.90
15916;DHT22;8057;47.830;-3.870;2023-05-31T21:02:49;15.50;99.90
15916;DHT22;8057;47.830;-3.870;2023-05-31T21:06:59;15.50;99.90
15916;DHT22;8057;47.830;-3.870;2023-05-31T21:11:08;15.50;99.90
15916;DHT22;8057;47.830;-3.870;2023-05-31T21:15:17;15.40;99.90
15916;DHT22;8057;47.830;-3.870;2023-05-31T21:19:28;15.40;99.90
15916;DHT22;8057;47.830;-3.870;2023-05-31T21:23:54;15.40;99.90
15916;DHT22;8057;47.830;-3.870;2023-05-31T21:28:03;15.30;99.90
15916;DHT22;8057;47.830;-3.870;2023-05-31T21:32:13;15.20;99.90
15916;DHT22;8057;47.830;-3.870;2023-05-31T21:36:23;15.30;99.90
15916;DHT22;8057;47.830;-3.870;2023-05-31T21:40:33;15.20;99.90
15916;DHT22;8057;47.830;-3.870;2023-05-31T21:44:42;15.20;99.90
15916;DHT22;8057;47.830;-3.870;2023-05-31T21:48:51;15.20;99.90
15916;DHT22;8057;47.830;-3.870;2023-05-31T21:53:02;15.20;99.90
15916;DHT22;8057;47.830;-3.870;2023-05-31T21:57:11;15.20;99.90
15916;DHT22;8057;47.830;-3.870;2023-05-31T22:01:21;15.10;99.90
15916;DHT22;8057;47.830;-3.870;2023-05-31T22:05:30;15.10;99.90
15916;DHT22;8057;47.830;-3.870;2023-05-31T22:09:41;15.10;99.90
15916;DHT22;8057;47.830;-3.870;2023-05-31T22:13:51;15.10;99.90
15916;DHT22;8057;47.830;-3.870;2023-05-31T22:18:00;15.10;99.90
15916;DHT22;8057;47.830;-3.870;2023-05-31T22:22:10;15.10;99.90
15916;DHT22;8057;47.830;-3.870;2023-05-31T22:26:21;15.10;99.90
15916;DHT22;8057;47.830;-3.870;2023-05-31T22:30:30;15.10;99.90
15916;DHT22;8057;47.830;-3.870;2023-05-31T22:34:40;15.20;99.90
15916;DHT22;8057;47.830;-3.870;2023-05-31T22:38:49;15.10;99.90
15916;DHT22;8057;47.830;-3.870;2023-05-31T22:42:59;15.20;99.90
15916;DHT22;8057;47.830;-3.870;2023-05-31T22:47:10;15.10;99.90
15916;DHT22;8057;47.830;-3.870;2023-05-31T22:51:19;15.10;99.90
15916;DHT22;8057;47.830;-3.870;2023-05-31T22:55:30;15.20;99.90
15916;DHT22;8057;47.830;-3.870;2023-05-31T22:59:41;15.20;99.90
15916;DHT22;8057;47.830;-3.870;2023-05-31T23:03:50;15.20;99.90
15916;DHT22;8057;47.830;-3.870;2023-05-31T23:07:59;15.20;99.90
15916;DHT22;8057;47.830;-3.870;2023-05-31T23:12:11;15.20;99.90
15916;DHT22;8057;47.830;-3.870;2023-05-31T23:16:22;15.20;99.90
15916;DHT22;8057;47.830;-3.870;2023-05-31T23:20:32;15.30;99.90
15916;DHT22;8057;47.830;-3.870;2023-05-31T23:24:42;15.30;99.90
15916;DHT22;8057;47.830;-3.870;2023-05-31T23:28:51;15.30;99.90
15916;DHT22;8057;47.830;-3.870;2023-05-31T23:33:02;15.30;99.90
15916;DHT22;8057;47.830;-3.870;2023-05-31T23:37:14;15.30;99.90
15916;DHT22;8057;47.830;-3.870;2023-05-31T23:41:23;15.30;99.90
15916;DHT22;8057;47.830;-3.870;2023-05-31T23:45:32;15.30;99.90
15916;DHT22;8057;47.830;-3.870;2023-05-31T23:49:43;15.30;99.90
15916;DHT22;8057;47.830;-3.870;2023-05-31T23:53:52;15.30;99.90
15916;DHT22;8057;47.830;-3.870;2023-05-31T23:58:02;15.40;99.90
